Ever Develop — 3FLF8 — position and weather

sailwx.info

Track history (hours):
 
Tides and Currents Weather Stations Pressure Air Temp Water Temp Dewpoint Dewpoint Depression Visibility Wind Speed Wind Dir Waves Ship Positions

Ever Develop

Last reported at 2016-Jun-28 14:32 UTC. Time now 2016-Jun-28 18:48 UTC.
Position N 36°53' W 076°20'.

Type: Ship (hazmat cat D). MMSI: 356391000.

Date/timePositionNaut miles runAvg speedWind from/ knotsBaromVisibWave heightAir tempDewpointWater temp
2016-Jun-28 14:32N 36°53' W 076°20'9 9.1
2016-Jun-28 13:32N 37°00' W 076°14'1212.3
2016-Jun-28 12:33N 36°58' W 075°60'5816.8
2016-Jun-28 09:05N 37°56' W 076°09'1119.5
2016-Jun-28 08:31N 38°06' W 076°13'2620.0
2016-Jun-28 07:13N 38°31' W 076°25'1319.2
2016-Jun-28 06:33N 38°44' W 076°26'2813.9
2016-Jun-28 04:34N 39°11' W 076°28'6 5.6
2016-Jun-28 03:34N 39°15' W 076°33'0 0.0
2016-Jun-28 02:31N 39°15' W 076°33'0 0.0
2016-Jun-28 01:34N 39°15' W 076°33'0 0.0
2016-Jun-28 00:31N 39°15' W 076°33'0 0.0
2016-Jun-27 23:31N 39°15' W 076°33'0 0.0
2016-Jun-27 22:28N 39°15' W 076°33'0 0.0
2016-Jun-27 21:31N 39°15' W 076°33'0 0.0
2016-Jun-27 20:34N 39°15' W 076°33'0 0.0
2016-Jun-27 19:31N 39°15' W 076°33'0 0.0
2016-Jun-27 18:31N 39°15' W 076°33'0 0.0
2016-Jun-27 17:31N 39°15' W 076°33'0 0.0
2016-Jun-27 16:28N 39°15' W 076°33'0 0.0
2016-Jun-27 15:31N 39°15' W 076°33'0 0.0
2016-Jun-27 14:31N 39°15' W 076°33'0 0.0
2016-Jun-27 13:31N 39°15' W 076°33'0 0.0
2016-Jun-27 12:34N 39°15' W 076°33'0 0.0
2016-Jun-27 11:34N 39°15' W 076°33'0 0.0
2016-Jun-27 10:32N 39°15' W 076°33'0 0.0
2016-Jun-27 09:31N 39°15' W 076°33'0 0.0
2016-Jun-27 08:28N 39°15' W 076°33'0 0.0
2016-Jun-27 07:34N 39°15' W 076°33'0 0.0
2016-Jun-27 06:31N 39°15' W 076°33'0 0.0
2016-Jun-27 05:31N 39°15' W 076°33'0 0.0
2016-Jun-27 04:31N 39°15' W 076°33'0 0.0
2016-Jun-27 03:31N 39°15' W 076°33'0 0.3
2016-Jun-27 02:33N 39°15' W 076°33'5 5.2
2016-Jun-27 01:33N 39°11' W 076°28'1211.9
2016-Jun-27 00:33N 39°00' W 076°23'1818.3
2016-Jun-26 23:33N 38°42' W 076°26'4018.9
2016-Jun-26 21:25N 38°03' W 076°13'5216.8
2016-Jun-26 18:19N 37°11' W 076°09'1418.1
2016-Jun-26 17:33N 36°59' W 076°00'1413.2
2016-Jun-26 16:29N 36°50' W 075°47'314 7.5
2016-Jun-24 22:22N 32°41' W 079°38'29 4.0
2016-Jun-24 15:07N 32°18' W 079°16'1014.8
2016-Jun-24 14:26N 32°11' W 079°08'1914.9
2016-Jun-24 13:11N 31°56' W 078°54'813.3
2016-Jun-24 12:33N 31°50' W 078°47'4714.2
2016-Jun-24 09:15N 31°13' W 078°13'50 3.9
2016-Jun-23 20:19N 30°36' W 077°35'  
2016-Jun-20 12:24N 10°04' W 079°32'1316.1
2016-Jun-20 11:33N 09°52' W 079°38'1716.8
2016-Jun-20 10:33N 09°38' W 079°47'1616.0
2016-Jun-20 09:33N 09°23' W 079°54'1 1.0
2016-Jun-20 08:33N 09°22' W 079°53'0 0.0
2016-Jun-20 07:32N 09°22' W 079°53'0 0.0
2016-Jun-20 06:33N 09°22' W 079°53'0 0.0
2016-Jun-20 05:32N 09°22' W 079°53'0 0.0
2016-Jun-20 04:33N 09°22' W 079°53'0 0.0
2016-Jun-20 03:32N 09°22' W 079°53'0 0.0
2016-Jun-20 02:33N 09°22' W 079°53'0 0.0
2016-Jun-20 01:27N 09°22' W 079°53'0 0.0
2016-Jun-20 00:30N 09°22' W 079°53'0 0.0
2016-Jun-19 23:33N 09°22' W 079°53'0 0.1
2016-Jun-19 22:33N 09°22' W 079°53'2 1.7
2016-Jun-19 21:33N 09°23' W 079°55'6 6.4
2016-Jun-19 20:33N 09°17' W 079°55'0 0.4
2016-Jun-19 19:33N 09°16' W 079°55'0 0.4
2016-Jun-19 18:33N 09°16' W 079°55'3 2.6
2016-Jun-19 17:33N 09°13' W 079°55'8 8.3
2016-Jun-19 16:33N 09°08' W 079°49'8 7.7
2016-Jun-19 15:33N 09°06' W 079°41'  
Track history (hours):
 
Tides and Currents Weather Stations Pressure Air Temp Water Temp Dewpoint Dewpoint Depression Visibility Wind Speed Wind Dir Waves Ship Positions

Ever Develop

Last reported at 2016-Jun-28 14:32 UTC. Time now 2016-Jun-28 18:48 UTC.
Position N 36°53' W 076°20'.

Type: Ship (hazmat cat D). MMSI: 356391000.

Date/timePositionNaut miles runAvg speedWind from/ knotsBaromVisibWave heightAir tempDewpointWater temp
2016-Jun-28 14:32N 36°53' W 076°20'9 9.1
2016-Jun-28 13:32N 37°00' W 076°14'1212.3
2016-Jun-28 12:33N 36°58' W 075°60'5816.8
2016-Jun-28 09:05N 37°56' W 076°09'1119.5
2016-Jun-28 08:31N 38°06' W 076°13'2620.0
2016-Jun-28 07:13N 38°31' W 076°25'1319.2
2016-Jun-28 06:33N 38°44' W 076°26'2813.9
2016-Jun-28 04:34N 39°11' W 076°28'6 5.6
2016-Jun-28 03:34N 39°15' W 076°33'0 0.0
2016-Jun-28 02:31N 39°15' W 076°33'0 0.0
2016-Jun-28 01:34N 39°15' W 076°33'0 0.0
2016-Jun-28 00:31N 39°15' W 076°33'0 0.0
2016-Jun-27 23:31N 39°15' W 076°33'0 0.0
2016-Jun-27 22:28N 39°15' W 076°33'0 0.0
2016-Jun-27 21:31N 39°15' W 076°33'0 0.0
2016-Jun-27 20:34N 39°15' W 076°33'0 0.0
2016-Jun-27 19:31N 39°15' W 076°33'0 0.0
2016-Jun-27 18:31N 39°15' W 076°33'0 0.0
2016-Jun-27 17:31N 39°15' W 076°33'0 0.0
2016-Jun-27 16:28N 39°15' W 076°33'0 0.0
2016-Jun-27 15:31N 39°15' W 076°33'0 0.0
2016-Jun-27 14:31N 39°15' W 076°33'0 0.0
2016-Jun-27 13:31N 39°15' W 076°33'0 0.0
2016-Jun-27 12:34N 39°15' W 076°33'0 0.0
2016-Jun-27 11:34N 39°15' W 076°33'0 0.0
2016-Jun-27 10:32N 39°15' W 076°33'0 0.0
2016-Jun-27 09:31N 39°15' W 076°33'0 0.0
2016-Jun-27 08:28N 39°15' W 076°33'0 0.0
2016-Jun-27 07:34N 39°15' W 076°33'0 0.0
2016-Jun-27 06:31N 39°15' W 076°33'0 0.0
2016-Jun-27 05:31N 39°15' W 076°33'0 0.0
2016-Jun-27 04:31N 39°15' W 076°33'0 0.0
2016-Jun-27 03:31N 39°15' W 076°33'0 0.3
2016-Jun-27 02:33N 39°15' W 076°33'5 5.2
2016-Jun-27 01:33N 39°11' W 076°28'1211.9
2016-Jun-27 00:33N 39°00' W 076°23'1818.3
2016-Jun-26 23:33N 38°42' W 076°26'4018.9
2016-Jun-26 21:25N 38°03' W 076°13'5216.8
2016-Jun-26 18:19N 37°11' W 076°09'1418.1
2016-Jun-26 17:33N 36°59' W 076°00'1413.2
2016-Jun-26 16:29N 36°50' W 075°47'314 7.5
2016-Jun-24 22:22N 32°41' W 079°38'29 4.0
2016-Jun-24 15:07N 32°18' W 079°16'1014.8
2016-Jun-24 14:26N 32°11' W 079°08'1914.9
2016-Jun-24 13:11N 31°56' W 078°54'813.3
2016-Jun-24 12:33N 31°50' W 078°47'4714.2
2016-Jun-24 09:15N 31°13' W 078°13'50 3.9
2016-Jun-23 20:19N 30°36' W 077°35'  
2016-Jun-20 12:24N 10°04' W 079°32'1316.1
2016-Jun-20 11:33N 09°52' W 079°38'1716.8
2016-Jun-20 10:33N 09°38' W 079°47'1616.0
2016-Jun-20 09:33N 09°23' W 079°54'1 1.0
2016-Jun-20 08:33N 09°22' W 079°53'0 0.0
2016-Jun-20 07:32N 09°22' W 079°53'0 0.0
2016-Jun-20 06:33N 09°22' W 079°53'0 0.0
2016-Jun-20 05:32N 09°22' W 079°53'0 0.0
2016-Jun-20 04:33N 09°22' W 079°53'0 0.0
2016-Jun-20 03:32N 09°22' W 079°53'0 0.0
2016-Jun-20 02:33N 09°22' W 079°53'0 0.0
2016-Jun-20 01:27N 09°22' W 079°53'0 0.0
2016-Jun-20 00:30N 09°22' W 079°53'0 0.0
2016-Jun-19 23:33N 09°22' W 079°53'0 0.1
2016-Jun-19 22:33N 09°22' W 079°53'2 1.7
2016-Jun-19 21:33N 09°23' W 079°55'6 6.4
2016-Jun-19 20:33N 09°17' W 079°55'0 0.4
2016-Jun-19 19:33N 09°16' W 079°55'0 0.4
2016-Jun-19 18:33N 09°16' W 079°55'3 2.6
2016-Jun-19 17:33N 09°13' W 079°55'8 8.3
2016-Jun-19 16:33N 09°08' W 079°49'8 7.7
2016-Jun-19 15:33N 09°06' W 079°41'  

Dump ship's entire track history